Jackson, TN (38305)

12:11 PM CST on November 28, 2014 (GMT -0600)
North Park | Change Station
CLOSE
Current Station
Personal Weather Station
Location: Jackson, TN
Elevation: 423 ft
Nearby Weather Stations

Elev 423 ft 35.71 °N, 88.82 °W | Updated 1 minute ago

Clear
Clear
46.4 °F
Feels Like 43 °F
N
6.0
Wind Variable Wind from SW
Gusts 6.0 mph

Today
High -- | Low -- °F
--% Chance of Precip.
Yesterday
High -- | Low -- °F
Precip. -- in
6:43 AM 4:42 PM
Waxing Crescent, 42% visible
Pressure 30.31 in
Visibility 10.0 miles
Clouds Clear
Windchill 43 °F
Dew Point 29 °F
Humidity 51%
Rainfall 0.00 in
Snow Depth Not available.
UV 3 out of 12
Pollen .30 out of 12
Air Quality Not available.
Flu Activity Not available.
METAR KMKL 281753Z 17009G14KT 120V190 10SM CLR 08/M03 A3030 RMK AO2 SLP262 T00831033 10083 21022 58037

More Conditions Fewer Conditions

Pressure 30.31 in
Visibility 10.0 miles
Clouds Clear
Windchill 43 °F
Dew Point 29 °F
Humidity 51%
Rainfall 0.00 in
Snow Depth Not available.
UV 3 out of 12
Pollen .30 out of 12
Air Quality Not available.
Flu Activity Not available.
METAR KMKL 281753Z 17009G14KT 120V190 10SM CLR 08/M03 A3030 RMK AO2 SLP262 T00831033 10083 21022 58037

More Conditions Fewer Conditions

10-Day Weather Forecast

Almanac

Astronomy

Nov. 28, 2014 Rise Set
Actual Time
Civil Twilight
Nautical Twilight
Astronomical Twilight
Moon
Length of Visible Light
Length of Day
Tomorrow will be .
, % of the Moon is Illuminated

Today's Extremes

State Highs State Lows

Community

WunderPhotos

Upload Photos

1,774,249 photos uploaded!

WunderBlogs® & News

Nearby

Air Quality

  Air Quality AQ Index Pollutant
Not available.

Snow Depth

Station Depth Elevation

Earthquake Activity

City Distance Mag. Time & Date
Minimum magnitude displayed is 2.5.

Coastal Water Temperatures

Place Temperature

Nearby Weather Stations